PRF99 EGVN-EGVN

Flight info

Callsign PRF99
Flight time 0h 29m
Altitude 13000
Route OPR
Aircraft G120/L-V/N

Departure

Time 2026-05-08 20:23
Airport RAF Brize Norton (EGVN)

Arrival

Time 2026-05-08 20:53
Airport RAF Brize Norton (EGVN)
Time Latitude Longitude Altitude Speed Heading
2026-05-08 20:09 51.75467 -1.57406 263 ft 0 kts 121°
2026-05-08 20:16 51.75461 -1.57390 262 ft 8 kts 123°
2026-05-08 20:16 51.75397 -1.57385 263 ft 6 kts 249°
2026-05-08 20:17 51.75446 -1.57525 264 ft 18 kts 299°
2026-05-08 20:17 51.75496 -1.57672 264 ft 12 kts 299°
2026-05-08 20:17 51.75458 -1.57785 265 ft 20 kts 208°
2026-05-08 20:17 51.75312 -1.57911 267 ft 23 kts 207°
2026-05-08 20:18 51.75191 -1.58017 269 ft 20 kts 207°
2026-05-08 20:18 51.75051 -1.58137 269 ft 25 kts 208°
2026-05-08 20:18 51.74907 -1.58264 271 ft 24 kts 208°
2026-05-08 20:18 51.74747 -1.58396 273 ft 26 kts 208°
2026-05-08 20:19 51.74647 -1.58530 274 ft 21 kts 253°
2026-05-08 20:19 51.74597 -1.58797 276 ft 27 kts 254°
2026-05-08 20:19 51.74557 -1.59024 278 ft 21 kts 254°
2026-05-08 20:19 51.74515 -1.59266 280 ft 21 kts 258°
2026-05-08 20:20 51.74469 -1.59504 282 ft 24 kts 253°
2026-05-08 20:20 51.74426 -1.59740 284 ft 18 kts 263°
2026-05-08 20:20 51.74463 -1.59934 286 ft 22 kts 299°
2026-05-08 20:20 51.74506 -1.60074 286 ft 13 kts 288°
2026-05-08 20:21 51.74486 -1.60217 288 ft 13 kts 283°
2026-05-08 20:21 51.74509 -1.60271 288 ft 0 kts 311°
2026-05-08 20:22 51.74571 -1.60355 291 ft 10 kts 332°
2026-05-08 20:22 51.74622 -1.60350 292 ft 9 kts 59°
2026-05-08 20:22 51.74637 -1.60259 288 ft 12 kts 72°
2026-05-08 20:22 51.74673 -1.60073 286 ft 53 kts 73°
2026-05-08 20:23 51.74894 -1.58848 473 ft 103 kts 73°
2026-05-08 20:23 51.75118 -1.57663 830 ft 114 kts 74°
2026-05-08 20:23 51.75633 -1.56763 1171 ft 114 kts 12°
2026-05-08 20:23 51.76528 -1.57294 1321 ft 168 kts 315°
2026-05-08 20:24 51.76801 -1.59133 1640 ft 182 kts 260°
2026-05-08 20:24 51.76474 -1.61057 1638 ft 168 kts 248°
2026-05-08 20:24 51.76019 -1.62991 1721 ft 158 kts 248°
2026-05-08 20:24 51.75609 -1.64149 1489 ft 101 kts 205°
2026-05-08 20:25 51.74750 -1.63832 1092 ft 145 kts 150°
2026-05-08 20:25 51.74238 -1.62822 727 ft 115 kts 95°
2026-05-08 20:25 51.74391 -1.61571 509 ft 114 kts 71°
2026-05-08 20:25 51.74603 -1.60470 461 ft 113 kts 73°
2026-05-08 20:26 51.74859 -1.59109 676 ft 143 kts 73°
2026-05-08 20:26 51.75270 -1.57386 1023 ft 179 kts 50°
2026-05-08 20:26 51.76393 -1.57217 1882 ft 182 kts 316°
2026-05-08 20:26 51.76653 -1.59281 2173 ft 216 kts 258°
2026-05-08 20:27 51.76250 -1.61413 1950 ft 166 kts 248°
2026-05-08 20:27 51.75806 -1.63311 1708 ft 206 kts 247°
2026-05-08 20:27 51.75241 -1.65247 1691 ft 156 kts 221°
2026-05-08 20:27 51.74313 -1.65052 1648 ft 151 kts 135°
2026-05-08 20:28 51.73986 -1.63743 1007 ft 114 kts 78°
2026-05-08 20:28 51.74230 -1.62427 695 ft 127 kts 71°
2026-05-08 20:28 51.74464 -1.61198 451 ft 114 kts 71°
2026-05-08 20:28 51.74713 -1.59851 533 ft 140 kts 71°
2026-05-08 20:29 51.75051 -1.58076 737 ft 187 kts 71°
2026-05-08 20:29 51.75986 -1.57069 1396 ft 191 kts 338°
2026-05-08 20:29 51.76760 -1.58809 1450 ft 202 kts 273°
2026-05-08 20:29 51.76464 -1.60855 1108 ft 178 kts 247°
2026-05-08 20:30 51.76024 -1.62487 935 ft 169 kts 246°
2026-05-08 20:30 51.75495 -1.64108 940 ft 168 kts 228°
2026-05-08 20:30 51.74576 -1.64064 1161 ft 141 kts 141°
2026-05-08 20:30 51.74227 -1.62876 798 ft 111 kts 90°
2026-05-08 20:31 51.74391 -1.61583 486 ft 104 kts 71°
2026-05-08 20:31 51.74606 -1.60477 387 ft 118 kts 69°
2026-05-08 20:31 51.74905 -1.58913 601 ft 169 kts 75°
2026-05-08 20:31 51.75385 -1.57124 1316 ft 165 kts 32°
2026-05-08 20:32 51.76552 -1.57400 1886 ft 187 kts 312°
2026-05-08 20:32 51.76549 -1.59394 2187 ft 187 kts 250°
2026-05-08 20:32 51.76125 -1.61512 2007 ft 223 kts 250°
2026-05-08 20:32 51.75744 -1.63659 1678 ft 171 kts 253°
2026-05-08 20:33 51.75508 -1.65352 1203 ft 145 kts 254°
2026-05-08 20:33 51.74614 -1.66236 1488 ft 185 kts 167°
2026-05-08 20:33 51.73849 -1.64990 1676 ft 131 kts 95°
2026-05-08 20:33 51.74034 -1.63590 1126 ft 131 kts 76°
2026-05-08 20:34 51.74256 -1.62343 730 ft 119 kts 72°
2026-05-08 20:34 51.74476 -1.61111 406 ft 104 kts 72°
2026-05-08 20:34 51.74871 -1.58190 1107 ft 164 kts 108°
2026-05-08 20:35 51.74209 -1.56558 1605 ft 188 kts 146°
2026-05-08 20:35 51.73018 -1.55982 1640 ft 185 kts 169°
2026-05-08 20:35 51.71596 -1.55221 1403 ft 239 kts 157°
2026-05-08 20:35 51.70324 -1.54408 1241 ft 158 kts 159°
2026-05-08 20:36 51.69241 -1.53693 1209 ft 191 kts 157°
2026-05-08 20:36 51.68081 -1.52977 1170 ft 194 kts 159°
2026-05-08 20:36 51.66739 -1.52247 1350 ft 201 kts 164°
2026-05-08 20:36 51.65589 -1.51723 1390 ft 181 kts 163°
2026-05-08 20:37 51.64560 -1.50616 1465 ft 165 kts 124°
2026-05-08 20:37 51.64321 -1.48899 1359 ft 160 kts 86°
2026-05-08 20:37 51.64497 -1.47119 1246 ft 174 kts 80°
2026-05-08 20:37 51.64753 -1.45315 1163 ft 148 kts 76°
2026-05-08 20:38 51.64938 -1.44027 985 ft 98 kts 109°
2026-05-08 20:38 51.64264 -1.43591 252 ft 111 kts 167°
2026-05-08 20:38 51.63618 -1.43196 860 ft 105 kts 159°
2026-05-08 20:38 51.62860 -1.43682 1253 ft 136 kts 219°
2026-05-08 20:39 51.62972 -1.44942 1972 ft 155 kts 337°
2026-05-08 20:39 51.64029 -1.45361 1708 ft 144 kts 29°
2026-05-08 20:39 51.63844 -1.44373 738 ft 134 kts 159°
2026-05-08 20:39 51.63031 -1.43913 328 ft 109 kts 160°
2026-05-08 20:40 51.62213 -1.43372 716 ft 144 kts 157°
2026-05-08 20:40 51.61277 -1.42898 1505 ft 151 kts 198°
2026-05-08 20:40 51.61022 -1.44478 2114 ft 186 kts 300°
2026-05-08 20:40 51.62197 -1.45899 2020 ft 229 kts 332°
2026-05-08 20:41 51.63446 -1.46921 1658 ft 174 kts 335°
2026-05-08 20:41 51.64435 -1.47659 1179 ft 145 kts 337°
2026-05-08 20:41 51.64423 -1.48583 846 ft 107 kts 171°
2026-05-08 20:41 51.64071 -1.48124 557 ft 100 kts 122°
2026-05-08 20:42 51.63660 -1.47069 577 ft 117 kts 117°
2026-05-08 20:42 51.63463 -1.45739 1258 ft 123 kts 94°
2026-05-08 20:42 51.63585 -1.44427 1525 ft 139 kts 58°
2026-05-08 20:42 51.64893 -1.43568 2348 ft 175 kts 350°
2026-05-08 20:43 51.65497 -1.44255 2685 ft 142 kts 289°
2026-05-08 20:43 51.64837 -1.45829 2666 ft 172 kts 183°
2026-05-08 20:43 51.63813 -1.45087 2569 ft 149 kts 144°
2026-05-08 20:43 51.62993 -1.44404 2070 ft 155 kts 203°
2026-05-08 20:44 51.62596 -1.45357 2047 ft 150 kts 265°
2026-05-08 20:44 51.62663 -1.47195 2143 ft 187 kts 277°
2026-05-08 20:44 51.62980 -1.49344 2513 ft 208 kts 281°
2026-05-08 20:44 51.63415 -1.51388 2679 ft 203 kts 314°
2026-05-08 20:45 51.64616 -1.51333 2393 ft 208 kts 37°
2026-05-08 20:45 51.65485 -1.49633 2469 ft 182 kts 58°
2026-05-08 20:45 51.66226 -1.48020 2580 ft 178 kts 53°
2026-05-08 20:45 51.67138 -1.46505 2444 ft 178 kts 47°
2026-05-08 20:46 51.68144 -1.45982 2339 ft 143 kts 339°
2026-05-08 20:46 51.68192 -1.47238 2370 ft 147 kts 220°
2026-05-08 20:46 51.67378 -1.48330 2163 ft 167 kts 216°
2026-05-08 20:46 51.66387 -1.49477 2190 ft 199 kts 212°
2026-05-08 20:47 51.65546 -1.51330 2518 ft 219 kts 265°
2026-05-08 20:47 51.66228 -1.53293 2829 ft 222 kts 353°
2026-05-08 20:47 51.67192 -1.52023 3029 ft 199 kts 81°
2026-05-08 20:47 51.67298 -1.49847 2665 ft 218 kts 90°
2026-05-08 20:48 51.67281 -1.47312 2509 ft 231 kts 93°
2026-05-08 20:48 51.67203 -1.44802 2154 ft 201 kts 115°
2026-05-08 20:48 51.66418 -1.45549 2462 ft 216 kts 260°
2026-05-08 20:48 51.66305 -1.47730 2411 ft 172 kts 265°
2026-05-08 20:49 51.66265 -1.49650 2334 ft 197 kts 266°
2026-05-08 20:49 51.66222 -1.52088 2371 ft 221 kts 268°
2026-05-08 20:49 51.66234 -1.54768 2442 ft 256 kts 271°
2026-05-08 20:49 51.66423 -1.57223 2361 ft 200 kts 277°
2026-05-08 20:50 51.67256 -1.58573 2947 ft 199 kts 27°
2026-05-08 20:50 51.68022 -1.56822 2727 ft 196 kts 69°
2026-05-08 20:50 51.69220 -1.55993 3112 ft 230 kts 325°
2026-05-08 20:50 51.70123 -1.57884 2507 ft 188 kts 294°
2026-05-08 20:51 51.70597 -1.59779 1973 ft 188 kts 287°
2026-05-08 20:51 51.71010 -1.61607 1596 ft 187 kts 292°
2026-05-08 20:51 51.71798 -1.63228 1430 ft 181 kts 324°
2026-05-08 20:51 51.72713 -1.63855 1349 ft 141 kts 347°
2026-05-08 20:52 51.73616 -1.63699 1127 ft 112 kts 30°
2026-05-08 20:52 51.74163 -1.62766 727 ft 108 kts 64°
2026-05-08 20:52 51.74383 -1.61615 492 ft 109 kts 72°
2026-05-08 20:52 51.74587 -1.60506 315 ft 94 kts 72°
2026-05-08 20:53 51.74747 -1.59652 280 ft 68 kts 69°
2026-05-08 20:53 51.74841 -1.59150 279 ft 39 kts 75°
2026-05-08 20:53 51.74928 -1.58677 276 ft 34 kts 71°
2026-05-08 20:53 51.75006 -1.58251 271 ft 33 kts 71°
2026-05-08 20:54 51.75151 -1.58048 269 ft 19 kts 27°
2026-05-08 20:54 51.75282 -1.57939 267 ft 21 kts 27°
2026-05-08 20:54 51.75391 -1.57831 266 ft 12 kts 56°
2026-05-08 20:54 51.75487 -1.57729 265 ft 14 kts 53°
2026-05-08 20:55 51.75483 -1.57482 263 ft 17 kts 91°
2026-05-08 20:55 51.75474 -1.57436 263 ft 0 kts 120°